sensor_id;sensor_type;location;lat;lon;timestamp;P1;durP1;ratioP1;P2;durP2;ratioP2
23119;SDS011;11729;50.836;4.330;2022-09-09T12:26:43;11.73;;;5.82;;
23119;SDS011;11729;50.836;4.330;2022-09-09T12:37:11;14.43;;;5.72;;
23119;SDS011;11729;50.836;4.330;2022-09-09T12:39:51;12.98;;;7.20;;
23119;SDS011;11729;50.836;4.330;2022-09-09T12:42:21;13.75;;;6.00;;
23119;SDS011;11729;50.836;4.330;2022-09-09T12:44:51;9.95;;;5.45;;
23119;SDS011;11729;50.836;4.330;2022-09-09T12:47:28;10.25;;;5.22;;
23119;SDS011;11729;50.836;4.330;2022-09-09T12:50:16;8.57;;;5.90;;
23119;SDS011;11729;50.836;4.330;2022-09-09T12:52:46;9.00;;;5.80;;
23119;SDS011;11729;50.836;4.330;2022-09-09T12:55:16;6.97;;;5.55;;
23119;SDS011;11729;50.836;4.330;2022-09-09T12:57:46;9.10;;;6.07;;
23119;SDS011;11729;50.836;4.330;2022-09-09T13:00:21;9.23;;;5.57;;
23119;SDS011;11729;50.836;4.330;2022-09-09T13:02:55;7.10;;;5.43;;
23119;SDS011;11729;50.836;4.330;2022-09-09T13:05:34;8.73;;;5.57;;
23119;SDS011;11729;50.836;4.330;2022-09-09T13:08:05;8.23;;;5.80;;
23119;SDS011;11729;50.836;4.330;2022-09-09T13:10:35;9.18;;;5.20;;
23119;SDS011;11729;50.836;4.330;2022-09-09T13:13:12;11.23;;;5.75;;
23119;SDS011;11729;50.836;4.330;2022-09-09T13:15:47;8.63;;;5.38;;
23119;SDS011;11729;50.836;4.330;2022-09-09T13:18:19;11.27;;;5.43;;
23119;SDS011;11729;50.836;4.330;2022-09-09T13:20:49;8.75;;;5.38;;
23119;SDS011;11729;50.836;4.330;2022-09-09T13:23:16;9.82;;;5.20;;
23119;SDS011;11729;50.836;4.330;2022-09-09T13:25:56;6.95;;;5.13;;
23119;SDS011;11729;50.836;4.330;2022-09-09T13:28:31;8.70;;;5.20;;
23119;SDS011;11729;50.836;4.330;2022-09-09T13:33:30;6.40;;;4.93;;
23119;SDS011;11729;50.836;4.330;2022-09-09T13:35:59;6.95;;;4.82;;
23119;SDS011;11729;50.836;4.330;2022-09-09T13:38:35;7.35;;;4.82;;
23119;SDS011;11729;50.836;4.330;2022-09-09T13:41:18;7.68;;;5.00;;
23119;SDS011;11729;50.836;4.330;2022-09-09T13:43:49;8.82;;;5.10;;
23119;SDS011;11729;50.836;4.330;2022-09-09T13:54:11;11.82;;;7.78;;
23119;SDS011;11729;50.836;4.330;2022-09-09T13:56:38;8.52;;;6.20;;
23119;SDS011;11729;50.836;4.330;2022-09-09T13:59:06;10.75;;;6.68;;
23119;SDS011;11729;50.836;4.330;2022-09-09T14:01:36;7.68;;;5.80;;
23119;SDS011;11729;50.836;4.330;2022-09-09T14:04:02;9.30;;;5.88;;
23119;SDS011;11729;50.836;4.330;2022-09-09T14:06:28;6.57;;;5.57;;
23119;SDS011;11729;50.836;4.330;2022-09-09T14:08:54;11.05;;;5.20;;
23119;SDS011;11729;50.836;4.330;2022-09-09T14:11:20;6.80;;;5.28;;
23119;SDS011;11729;50.836;4.330;2022-09-09T14:13:47;5.43;;;4.93;;
23119;SDS011;11729;50.836;4.330;2022-09-09T14:16:14;6.65;;;5.15;;
23119;SDS011;11729;50.836;4.330;2022-09-09T14:18:41;10.55;;;5.35;;
23119;SDS011;11729;50.836;4.330;2022-09-09T14:21:06;7.22;;;5.20;;
23119;SDS011;11729;50.836;4.330;2022-09-09T14:23:33;5.65;;;5.05;;
23119;SDS011;11729;50.836;4.330;2022-09-09T14:25:59;5.38;;;4.80;;
23119;SDS011;11729;50.836;4.330;2022-09-09T14:28:24;6.72;;;5.10;;
23119;SDS011;11729;50.836;4.330;2022-09-09T14:30:50;7.85;;;5.10;;
23119;SDS011;11729;50.836;4.330;2022-09-09T14:33:17;10.07;;;5.00;;
23119;SDS011;11729;50.836;4.330;2022-09-09T14:35:42;9.20;;;5.20;;
23119;SDS011;11729;50.836;4.330;2022-09-09T14:38:09;7.75;;;4.82;;
23119;SDS011;11729;50.836;4.330;2022-09-09T14:40:35;7.40;;;5.28;;
23119;SDS011;11729;50.836;4.330;2022-09-09T14:43:02;14.88;;;5.10;;
23119;SDS011;11729;50.836;4.330;2022-09-09T14:45:29;11.80;;;5.10;;
23119;SDS011;11729;50.836;4.330;2022-09-09T14:47:55;6.85;;;4.88;;
23119;SDS011;11729;50.836;4.330;2022-09-09T14:50:21;6.68;;;4.80;;
23119;SDS011;11729;50.836;4.330;2022-09-09T14:52:48;6.43;;;5.35;;
23119;SDS011;11729;50.836;4.330;2022-09-09T14:55:13;10.85;;;5.30;;
23119;SDS011;11729;50.836;4.330;2022-09-09T14:57:40;6.97;;;5.00;;
23119;SDS011;11729;50.836;4.330;2022-09-09T15:00:07;7.07;;;5.20;;
23119;SDS011;11729;50.836;4.330;2022-09-09T15:05:05;9.40;;;5.22;;
23119;SDS011;11729;50.836;4.330;2022-09-09T15:07:31;9.38;;;5.60;;
23119;SDS011;11729;50.836;4.330;2022-09-09T15:09:57;7.97;;;5.25;;
23119;SDS011;11729;50.836;4.330;2022-09-09T15:12:23;9.60;;;5.60;;
23119;SDS011;11729;50.836;4.330;2022-09-09T15:14:49;12.13;;;5.70;;
23119;SDS011;11729;50.836;4.330;2022-09-09T15:17:15;10.00;;;5.30;;
23119;SDS011;11729;50.836;4.330;2022-09-09T15:19:41;8.48;;;5.05;;
23119;SDS011;11729;50.836;4.330;2022-09-09T15:22:07;6.20;;;5.30;;
23119;SDS011;11729;50.836;4.330;2022-09-09T15:24:33;8.23;;;5.07;;
23119;SDS011;11729;50.836;4.330;2022-09-09T15:27:00;7.30;;;5.10;;
23119;SDS011;11729;50.836;4.330;2022-09-09T15:29:27;13.77;;;6.85;;
23119;SDS011;11729;50.836;4.330;2022-09-09T15:31:53;12.20;;;7.53;;
23119;SDS011;11729;50.836;4.330;2022-09-09T15:34:20;7.63;;;5.88;;
23119;SDS011;11729;50.836;4.330;2022-09-09T15:36:46;10.18;;;6.30;;
23119;SDS011;11729;50.836;4.330;2022-09-09T15:39:12;27.13;;;10.52;;
23119;SDS011;11729;50.836;4.330;2022-09-09T15:41:42;33.90;;;12.85;;
23119;SDS011;11729;50.836;4.330;2022-09-09T15:44:09;12.15;;;6.82;;
23119;SDS011;11729;50.836;4.330;2022-09-09T15:46:48;10.25;;;5.75;;
23119;SDS011;11729;50.836;4.330;2022-09-09T15:49:18;7.60;;;5.43;;
23119;SDS011;11729;50.836;4.330;2022-09-09T15:51:47;11.10;;;5.40;;
23119;SDS011;11729;50.836;4.330;2022-09-09T15:54:20;7.60;;;5.68;;
23119;SDS011;11729;50.836;4.330;2022-09-09T15:56:49;7.15;;;5.43;;
23119;SDS011;11729;50.836;4.330;2022-09-09T15:59:21;7.00;;;5.80;;
23119;SDS011;11729;50.836;4.330;2022-09-09T16:01:48;8.65;;;5.57;;
23119;SDS011;11729;50.836;4.330;2022-09-09T16:07:09;9.75;;;5.82;;
23119;SDS011;11729;50.836;4.330;2022-09-09T16:09:34;13.63;;;5.85;;
23119;SDS011;11729;50.836;4.330;2022-09-09T16:12:00;9.23;;;6.03;;
23119;SDS011;11729;50.836;4.330;2022-09-09T16:14:27;8.20;;;5.63;;
23119;SDS011;11729;50.836;4.330;2022-09-09T16:16:53;7.78;;;5.70;;
23119;SDS011;11729;50.836;4.330;2022-09-09T16:19:19;7.10;;;5.30;;
23119;SDS011;11729;50.836;4.330;2022-09-09T16:21:46;8.95;;;5.60;;
23119;SDS011;11729;50.836;4.330;2022-09-09T16:24:15;6.45;;;5.07;;
23119;SDS011;11729;50.836;4.330;2022-09-09T16:26:46;8.15;;;5.40;;
23119;SDS011;11729;50.836;4.330;2022-09-09T16:31:39;6.90;;;5.00;;
23119;SDS011;11729;50.836;4.330;2022-09-09T16:34:06;6.57;;;5.00;;
23119;SDS011;11729;50.836;4.330;2022-09-09T16:36:33;8.90;;;5.05;;
23119;SDS011;11729;50.836;4.330;2022-09-09T16:39:02;9.02;;;5.43;;
23119;SDS011;11729;50.836;4.330;2022-09-09T16:41:30;6.50;;;5.57;;
23119;SDS011;11729;50.836;4.330;2022-09-09T16:44:00;6.30;;;5.15;;
23119;SDS011;11729;50.836;4.330;2022-09-09T16:46:30;8.55;;;5.00;;
23119;SDS011;11729;50.836;4.330;2022-09-09T16:48:59;6.45;;;5.07;;
23119;SDS011;11729;50.836;4.330;2022-09-09T16:51:30;6.28;;;5.20;;
23119;SDS011;11729;50.836;4.330;2022-09-09T16:53:58;5.80;;;5.22;;
23119;SDS011;11729;50.836;4.330;2022-09-09T16:56:26;7.32;;;5.65;;
23119;SDS011;11729;50.836;4.330;2022-09-09T16:58:58;7.13;;;5.63;;
23119;SDS011;11729;50.836;4.330;2022-09-09T17:01:29;6.85;;;5.30;;
23119;SDS011;11729;50.836;4.330;2022-09-09T17:03:59;9.73;;;5.93;;
23119;SDS011;11729;50.836;4.330;2022-09-09T17:06:29;7.30;;;5.80;;
23119;SDS011;11729;50.836;4.330;2022-09-09T17:11:22;10.95;;;5.95;;
23119;SDS011;11729;50.836;4.330;2022-09-09T17:13:48;10.05;;;5.78;;
23119;SDS011;11729;50.836;4.330;2022-09-09T17:16:18;6.13;;;5.30;;
23119;SDS011;11729;50.836;4.330;2022-09-09T17:18:46;8.35;;;5.70;;
23119;SDS011;11729;50.836;4.330;2022-09-09T17:21:15;9.80;;;5.80;;
23119;SDS011;11729;50.836;4.330;2022-09-09T17:23:43;6.32;;;5.30;;
23119;SDS011;11729;50.836;4.330;2022-09-09T17:26:10;8.18;;;5.40;;
23119;SDS011;11729;50.836;4.330;2022-09-09T17:28:37;12.90;;;5.78;;
23119;SDS011;11729;50.836;4.330;2022-09-09T17:31:04;6.13;;;5.40;;
23119;SDS011;11729;50.836;4.330;2022-09-09T17:33:35;6.40;;;5.57;;
23119;SDS011;11729;50.836;4.330;2022-09-09T17:38:36;7.13;;;5.85;;
23119;SDS011;11729;50.836;4.330;2022-09-09T17:43:36;8.48;;;5.30;;
23119;SDS011;11729;50.836;4.330;2022-09-09T17:49:02;9.60;;;5.50;;
23119;SDS011;11729;50.836;4.330;2022-09-09T17:51:39;9.32;;;5.60;;
23119;SDS011;11729;50.836;4.330;2022-09-09T17:54:17;12.97;;;6.10;;
23119;SDS011;11729;50.836;4.330;2022-09-09T17:59:11;12.43;;;5.95;;
23119;SDS011;11729;50.836;4.330;2022-09-09T18:01:38;7.75;;;5.32;;
23119;SDS011;11729;50.836;4.330;2022-09-09T18:04:07;13.65;;;6.55;;
23119;SDS011;11729;50.836;4.330;2022-09-09T18:09:02;9.50;;;6.27;;
23119;SDS011;11729;50.836;4.330;2022-09-09T18:11:31;9.38;;;5.65;;
23119;SDS011;11729;50.836;4.330;2022-09-09T18:14:00;11.20;;;5.72;;
23119;SDS011;11729;50.836;4.330;2022-09-09T18:16:28;15.70;;;6.20;;
23119;SDS011;11729;50.836;4.330;2022-09-09T18:18:55;8.35;;;6.38;;
23119;SDS011;11729;50.836;4.330;2022-09-09T18:21:25;10.07;;;5.63;;
23119;SDS011;11729;50.836;4.330;2022-09-09T18:23:53;11.93;;;5.75;;
23119;SDS011;11729;50.836;4.330;2022-09-09T18:26:23;13.32;;;6.15;;
23119;SDS011;11729;50.836;4.330;2022-09-09T18:28:51;11.85;;;5.43;;
23119;SDS011;11729;50.836;4.330;2022-09-09T18:31:23;16.63;;;6.03;;
23119;SDS011;11729;50.836;4.330;2022-09-09T18:33:51;13.65;;;6.35;;
23119;SDS011;11729;50.836;4.330;2022-09-09T18:39:15;9.57;;;5.80;;
23119;SDS011;11729;50.836;4.330;2022-09-09T18:41:43;15.13;;;6.57;;
23119;SDS011;11729;50.836;4.330;2022-09-09T18:44:11;13.52;;;5.53;;
23119;SDS011;11729;50.836;4.330;2022-09-09T18:46:41;16.08;;;7.25;;
23119;SDS011;11729;50.836;4.330;2022-09-09T18:49:08;15.07;;;7.50;;
23119;SDS011;11729;50.836;4.330;2022-09-09T18:51:37;15.52;;;6.65;;
23119;SDS011;11729;50.836;4.330;2022-09-09T18:54:14;15.25;;;6.47;;
23119;SDS011;11729;50.836;4.330;2022-09-09T18:56:42;14.25;;;6.80;;
23119;SDS011;11729;50.836;4.330;2022-09-09T18:59:09;15.95;;;6.30;;
23119;SDS011;11729;50.836;4.330;2022-09-09T19:01:37;13.90;;;6.45;;
23119;SDS011;11729;50.836;4.330;2022-09-09T19:04:03;20.98;;;11.77;;
23119;SDS011;11729;50.836;4.330;2022-09-09T19:06:30;17.58;;;7.40;;
23119;SDS011;11729;50.836;4.330;2022-09-09T19:09:01;13.95;;;7.15;;
23119;SDS011;11729;50.836;4.330;2022-09-09T19:11:27;13.70;;;6.55;;
23119;SDS011;11729;50.836;4.330;2022-09-09T19:13:58;16.63;;;6.47;;
23119;SDS011;11729;50.836;4.330;2022-09-09T19:16:26;10.00;;;6.30;;
23119;SDS011;11729;50.836;4.330;2022-09-09T19:18:54;10.38;;;6.35;;
23119;SDS011;11729;50.836;4.330;2022-09-09T19:21:23;13.00;;;7.05;;
23119;SDS011;11729;50.836;4.330;2022-09-09T19:26:24;12.93;;;8.00;;
23119;SDS011;11729;50.836;4.330;2022-09-09T19:28:56;8.73;;;6.57;;
23119;SDS011;11729;50.836;4.330;2022-09-09T19:31:23;12.25;;;6.18;;
23119;SDS011;11729;50.836;4.330;2022-09-09T19:33:49;11.27;;;6.28;;
23119;SDS011;11729;50.836;4.330;2022-09-09T19:36:17;11.25;;;6.40;;
23119;SDS011;11729;50.836;4.330;2022-09-09T19:38:44;10.07;;;6.25;;
23119;SDS011;11729;50.836;4.330;2022-09-09T19:41:11;9.00;;;5.72;;
23119;SDS011;11729;50.836;4.330;2022-09-09T19:43:42;8.38;;;5.70;;
23119;SDS011;11729;50.836;4.330;2022-09-09T19:46:09;8.18;;;6.00;;
23119;SDS011;11729;50.836;4.330;2022-09-09T19:48:37;8.45;;;5.63;;
23119;SDS011;11729;50.836;4.330;2022-09-09T19:51:05;10.50;;;5.95;;
23119;SDS011;11729;50.836;4.330;2022-09-09T19:53:40;9.80;;;7.95;;
23119;SDS011;11729;50.836;4.330;2022-09-09T19:56:09;8.75;;;5.32;;
23119;SDS011;11729;50.836;4.330;2022-09-09T19:58:35;8.13;;;6.13;;
23119;SDS011;11729;50.836;4.330;2022-09-09T20:01:11;8.00;;;6.50;;
23119;SDS011;11729;50.836;4.330;2022-09-09T20:03:39;7.93;;;6.07;;
23119;SDS011;11729;50.836;4.330;2022-09-09T20:06:07;8.57;;;5.82;;
23119;SDS011;11729;50.836;4.330;2022-09-09T20:08:35;8.35;;;5.95;;
23119;SDS011;11729;50.836;4.330;2022-09-09T20:11:01;8.70;;;6.82;;
23119;SDS011;11729;50.836;4.330;2022-09-09T20:13:28;11.15;;;6.80;;
23119;SDS011;11729;50.836;4.330;2022-09-09T20:15:56;9.88;;;6.68;;
23119;SDS011;11729;50.836;4.330;2022-09-09T20:18:22;11.85;;;9.13;;
23119;SDS011;11729;50.836;4.330;2022-09-09T20:20:48;10.98;;;7.05;;
23119;SDS011;11729;50.836;4.330;2022-09-09T20:23:14;11.18;;;6.57;;
23119;SDS011;11729;50.836;4.330;2022-09-09T20:25:42;11.45;;;6.90;;
23119;SDS011;11729;50.836;4.330;2022-09-09T20:28:09;11.30;;;7.25;;
23119;SDS011;11729;50.836;4.330;2022-09-09T20:30:34;11.82;;;6.95;;
23119;SDS011;11729;50.836;4.330;2022-09-09T20:33:02;11.15;;;7.57;;
23119;SDS011;11729;50.836;4.330;2022-09-09T20:35:28;10.95;;;6.60;;
23119;SDS011;11729;50.836;4.330;2022-09-09T20:37:56;15.30;;;9.18;;
23119;SDS011;11729;50.836;4.330;2022-09-09T20:40:22;12.45;;;7.28;;
23119;SDS011;11729;50.836;4.330;2022-09-09T20:42:47;13.75;;;7.20;;
23119;SDS011;11729;50.836;4.330;2022-09-09T20:45:15;19.50;;;10.50;;
23119;SDS011;11729;50.836;4.330;2022-09-09T20:47:40;13.80;;;7.50;;
23119;SDS011;11729;50.836;4.330;2022-09-09T20:50:06;14.55;;;7.35;;
23119;SDS011;11729;50.836;4.330;2022-09-09T20:52:33;13.30;;;7.20;;
23119;SDS011;11729;50.836;4.330;2022-09-09T20:54:58;11.35;;;7.15;;
23119;SDS011;11729;50.836;4.330;2022-09-09T20:57:24;10.57;;;7.45;;
23119;SDS011;11729;50.836;4.330;2022-09-09T20:59:49;10.63;;;7.38;;
23119;SDS011;11729;50.836;4.330;2022-09-09T21:02:16;13.93;;;7.15;;
23119;SDS011;11729;50.836;4.330;2022-09-09T21:04:42;13.30;;;6.82;;
23119;SDS011;11729;50.836;4.330;2022-09-09T21:07:09;14.00;;;6.78;;
23119;SDS011;11729;50.836;4.330;2022-09-09T21:09:35;12.18;;;6.80;;
23119;SDS011;11729;50.836;4.330;2022-09-09T21:12:01;13.20;;;6.68;;
23119;SDS011;11729;50.836;4.330;2022-09-09T21:14:26;10.30;;;6.85;;
23119;SDS011;11729;50.836;4.330;2022-09-09T21:16:52;12.10;;;6.90;;
23119;SDS011;11729;50.836;4.330;2022-09-09T21:19:18;13.10;;;7.70;;
23119;SDS011;11729;50.836;4.330;2022-09-09T21:21:44;10.48;;;6.80;;
23119;SDS011;11729;50.836;4.330;2022-09-09T21:24:11;13.52;;;7.80;;
23119;SDS011;11729;50.836;4.330;2022-09-09T21:26:37;14.60;;;7.50;;
23119;SDS011;11729;50.836;4.330;2022-09-09T21:29:03;10.82;;;6.85;;
23119;SDS011;11729;50.836;4.330;2022-09-09T21:31:29;15.70;;;7.95;;
23119;SDS011;11729;50.836;4.330;2022-09-09T21:33:56;14.75;;;8.52;;
23119;SDS011;11729;50.836;4.330;2022-09-09T21:36:22;14.43;;;7.20;;
23119;SDS011;11729;50.836;4.330;2022-09-09T21:38:49;10.02;;;7.00;;
23119;SDS011;11729;50.836;4.330;2022-09-09T21:41:15;10.15;;;7.15;;
23119;SDS011;11729;50.836;4.330;2022-09-09T21:43:41;11.93;;;7.68;;
23119;SDS011;11729;50.836;4.330;2022-09-09T21:46:08;20.63;;;9.88;;
23119;SDS011;11729;50.836;4.330;2022-09-09T21:51:03;15.93;;;7.20;;
23119;SDS011;11729;50.836;4.330;2022-09-09T21:53:30;13.45;;;7.45;;
23119;SDS011;11729;50.836;4.330;2022-09-09T21:56:03;14.23;;;7.72;;
23119;SDS011;11729;50.836;4.330;2022-09-09T21:58:31;15.15;;;7.57;;
23119;SDS011;11729;50.836;4.330;2022-09-09T22:00:57;19.15;;;7.60;;
23119;SDS011;11729;50.836;4.330;2022-09-09T22:03:23;13.35;;;7.07;;
23119;SDS011;11729;50.836;4.330;2022-09-09T22:05:48;14.45;;;7.30;;
23119;SDS011;11729;50.836;4.330;2022-09-09T22:08:15;15.43;;;7.78;;
23119;SDS011;11729;50.836;4.330;2022-09-09T22:10:42;17.58;;;7.45;;
23119;SDS011;11729;50.836;4.330;2022-09-09T22:13:10;15.85;;;7.18;;
23119;SDS011;11729;50.836;4.330;2022-09-09T22:15:39;13.50;;;7.22;;
23119;SDS011;11729;50.836;4.330;2022-09-09T22:18:06;16.10;;;7.40;;
23119;SDS011;11729;50.836;4.330;2022-09-09T22:20:32;17.05;;;7.78;;
23119;SDS011;11729;50.836;4.330;2022-09-09T22:23:03;12.77;;;7.00;;
23119;SDS011;11729;50.836;4.330;2022-09-09T22:25:32;15.95;;;7.20;;
23119;SDS011;11729;50.836;4.330;2022-09-09T22:27:59;15.40;;;7.60;;
23119;SDS011;11729;50.836;4.330;2022-09-09T22:30:26;12.07;;;7.65;;
23119;SDS011;11729;50.836;4.330;2022-09-09T22:32:53;14.27;;;7.13;;
23119;SDS011;11729;50.836;4.330;2022-09-09T22:35:19;13.35;;;7.43;;
23119;SDS011;11729;50.836;4.330;2022-09-09T22:37:45;13.95;;;7.75;;
23119;SDS011;11729;50.836;4.330;2022-09-09T22:40:11;13.70;;;7.60;;
23119;SDS011;11729;50.836;4.330;2022-09-09T22:42:38;12.43;;;7.53;;
23119;SDS011;11729;50.836;4.330;2022-09-09T22:45:05;10.27;;;6.85;;
23119;SDS011;11729;50.836;4.330;2022-09-09T22:47:32;12.73;;;7.57;;
23119;SDS011;11729;50.836;4.330;2022-09-09T22:49:58;17.67;;;8.30;;
23119;SDS011;11729;50.836;4.330;2022-09-09T22:52:24;13.35;;;7.70;;
23119;SDS011;11729;50.836;4.330;2022-09-09T22:54:49;13.25;;;7.50;;
23119;SDS011;11729;50.836;4.330;2022-09-09T22:57:16;14.32;;;7.55;;
23119;SDS011;11729;50.836;4.330;2022-09-09T22:59:41;14.48;;;7.75;;
23119;SDS011;11729;50.836;4.330;2022-09-09T23:02:07;13.85;;;7.82;;
23119;SDS011;11729;50.836;4.330;2022-09-09T23:04:34;16.70;;;7.30;;
23119;SDS011;11729;50.836;4.330;2022-09-09T23:07:03;13.05;;;7.55;;
23119;SDS011;11729;50.836;4.330;2022-09-09T23:09:32;15.00;;;8.07;;
23119;SDS011;11729;50.836;4.330;2022-09-09T23:11:58;18.40;;;7.60;;
23119;SDS011;11729;50.836;4.330;2022-09-09T23:14:24;12.82;;;7.95;;
23119;SDS011;11729;50.836;4.330;2022-09-09T23:16:52;14.70;;;7.72;;
23119;SDS011;11729;50.836;4.330;2022-09-09T23:19:17;14.23;;;7.82;;
23119;SDS011;11729;50.836;4.330;2022-09-09T23:21:44;17.98;;;8.45;;
23119;SDS011;11729;50.836;4.330;2022-09-09T23:24:11;15.45;;;8.05;;
23119;SDS011;11729;50.836;4.330;2022-09-09T23:26:39;14.90;;;8.38;;
23119;SDS011;11729;50.836;4.330;2022-09-09T23:29:05;12.77;;;8.07;;
23119;SDS011;11729;50.836;4.330;2022-09-09T23:31:32;15.55;;;8.35;;
23119;SDS011;11729;50.836;4.330;2022-09-09T23:34:02;18.85;;;7.93;;
23119;SDS011;11729;50.836;4.330;2022-09-09T23:36:28;13.00;;;7.97;;
23119;SDS011;11729;50.836;4.330;2022-09-09T23:38:55;16.77;;;8.00;;
23119;SDS011;11729;50.836;4.330;2022-09-09T23:41:22;14.20;;;8.05;;
23119;SDS011;11729;50.836;4.330;2022-09-09T23:43:48;12.32;;;7.45;;
23119;SDS011;11729;50.836;4.330;2022-09-09T23:46:17;9.00;;;7.53;;
23119;SDS011;11729;50.836;4.330;2022-09-09T23:51:11;14.02;;;7.50;;
23119;SDS011;11729;50.836;4.330;2022-09-09T23:53:45;14.25;;;7.97;;
23119;SDS011;11729;50.836;4.330;2022-09-09T23:56:15;19.25;;;7.95;;
23119;SDS011;11729;50.836;4.330;2022-09-09T23:58:42;15.65;;;7.85;;
